Time;durP1;ratioP1;P1;durP2;ratioP2;P2;SDS_P1;SDS_P2;PMS_P1;PMS_P2;Temp;Humidity;BMP_temperature;BMP_pressure;BME280_temperature;BME280_humidity;BME280_pressure;Samples;Min_cycle;Max_cycle;Signal;HPM_P1;HPM_P2
2022/11/18 00:01:46;;;;;;;0.50;0.50;;;6.50;99.90;;;;;;4976999;28;20042;-82
2022/11/18 00:04:11;;;;;;;0.60;0.60;;;6.80;99.90;;;;;;4948266;28;20046;-84
2022/11/18 00:06:37;;;;;;;0.40;0.40;;;6.70;99.90;;;;;;4990112;28;20379;-83
2022/11/18 00:09:03;;;;;;;0.50;0.50;;;6.60;99.90;;;;;;4980021;28;20064;-82
2022/11/18 00:14:18;;;;;;;0.50;0.50;;;6.40;99.90;;;;;;4992741;28;20060;-82
2022/11/18 00:16:53;;;;;;;0.65;0.65;;;6.40;99.90;;;;;;4949731;28;20164;-81
2022/11/18 00:19:21;;;;;;;0.60;0.60;;;6.40;99.90;;;;;;4977351;28;20045;-82
2022/11/18 00:21:47;;;;;;;0.43;0.43;;;6.40;99.90;;;;;;4975282;28;20041;-83
2022/11/18 00:24:13;;;;;;;0.52;0.52;;;6.40;99.90;;;;;;4963310;28;20048;-82
2022/11/18 00:26:39;;;;;;;0.45;0.45;;;6.40;99.90;;;;;;4965885;28;20084;-83
2022/11/18 00:29:05;;;;;;;0.60;0.60;;;7.20;99.90;;;;;;4998838;28;20056;-83
2022/11/18 00:31:31;;;;;;;0.50;0.50;;;6.40;99.90;;;;;;4976531;28;20050;-82
2022/11/18 00:33:58;;;;;;;0.60;0.60;;;6.40;99.90;;;;;;4982306;28;21266;-82
2022/11/18 00:36:23;;;;;;;0.50;0.50;;;6.60;99.90;;;;;;4975921;28;20606;-83
2022/11/18 00:38:49;;;;;;;0.60;0.60;;;7.00;99.90;;;;;;4979278;28;20046;-82
2022/11/18 00:41:15;;;;;;;0.40;0.40;;;6.40;99.90;;;;;;4994116;28;20919;-83
2022/11/18 00:43:41;;;;;;;0.60;0.60;;;6.40;99.90;;;;;;4969097;28;20400;-83
2022/11/18 00:46:10;;;;;;;0.52;0.52;;;6.40;99.90;;;;;;4991643;28;20387;-83
2022/11/18 00:48:36;;;;;;;0.50;0.50;;;6.40;99.90;;;;;;4990810;28;20053;-82
2022/11/18 00:51:14;;;;;;;0.55;0.55;;;6.40;99.90;;;;;;4971797;28;20054;-82
2022/11/18 00:53:40;;;;;;;0.50;0.50;;;6.40;99.90;;;;;;4988609;28;20050;-82
2022/11/18 00:56:12;;;;;;;0.40;0.40;;;6.40;99.90;;;;;;4972399;28;20050;-82
2022/11/18 00:58:37;;;;;;;0.63;0.63;;;6.40;99.90;;;;;;4974517;28;20116;-82
2022/11/18 01:01:03;;;;;;;0.65;0.65;;;6.30;99.90;;;;;;4959679;28;20046;-82
2022/11/18 01:03:29;;;;;;;;;;;6.30;99.90;;;;;;4973593;28;20169;-83
2022/11/18 01:05:55;;;;;;;0.70;0.70;;;6.60;99.90;;;;;;4971642;28;21427;-83
2022/11/18 01:08:21;;;;;;;0.52;0.52;;;6.30;99.90;;;;;;4973706;28;20420;-83
2022/11/18 01:10:48;;;;;;;0.50;0.50;;;6.40;99.90;;;;;;4957351;28;20159;-82
2022/11/18 01:13:20;;;;;;;0.50;0.50;;;6.60;99.90;;;;;;4972893;28;20539;-83
2022/11/18 01:15:49;;;;;;;0.50;0.50;;;6.30;99.90;;;;;;4971302;28;20078;-83
2022/11/18 01:18:16;;;;;;;0.57;0.57;;;6.30;99.90;;;;;;4973306;28;20093;-83
2022/11/18 01:20:43;;;;;;;0.40;0.40;;;6.30;99.90;;;;;;4954719;28;20420;-83
2022/11/18 01:23:09;;;;;;;0.50;0.50;;;6.50;99.90;;;;;;4971955;28;20077;-84
2022/11/18 01:25:37;;;;;;;0.50;0.50;;;6.30;99.90;;;;;;4971111;28;20042;-84
2022/11/18 01:28:04;;;;;;;0.60;0.60;;;6.40;99.90;;;;;;4987055;28;20129;-84
2022/11/18 01:30:33;;;;;;;0.50;0.50;;;6.30;99.90;;;;;;4987847;28;20050;-83
2022/11/18 01:32:59;;;;;;;0.60;0.60;;;6.30;99.90;;;;;;4975545;28;20050;-84
2022/11/18 01:35:25;;;;;;;0.50;0.50;;;6.30;99.90;;;;;;4990478;28;20045;-84
2022/11/18 01:37:50;;;;;;;0.57;0.57;;;6.20;99.90;;;;;;4973757;28;20042;-84
2022/11/18 01:40:16;;;;;;;0.60;0.60;;;6.30;99.90;;;;;;4991417;28;20042;-82
2022/11/18 01:42:42;;;;;;;0.52;0.52;;;6.20;99.90;;;;;;4960553;28;20037;-83
2022/11/18 01:45:14;;;;;;;1.13;1.10;;;6.30;99.90;;;;;;4974252;28;20696;-81
2022/11/18 01:47:44;;;;;;;0.50;0.50;;;6.20;99.90;;;;;;4960337;28;20059;-80
2022/11/18 01:50:11;;;;;;;0.70;0.70;;;6.30;99.90;;;;;;4960097;28;20046;-80
2022/11/18 01:52:39;;;;;;;0.50;0.50;;;6.60;99.90;;;;;;4954371;28;20445;-84
2022/11/18 01:55:10;;;;;;;0.50;0.50;;;6.30;99.90;;;;;;4957232;28;20156;-82
2022/11/18 01:57:36;;;;;;;0.40;0.40;;;6.80;99.90;;;;;;4946504;28;20047;-84
2022/11/18 02:00:06;;;;;;;0.60;0.60;;;6.20;99.90;;;;;;4970614;28;20074;-84
2022/11/18 02:02:34;;;;;;;0.50;0.50;;;6.20;99.90;;;;;;4960049;28;20053;-85
2022/11/18 02:05:03;;;;;;;0.52;0.52;;;6.20;99.90;;;;;;4956883;28;20043;-84
2022/11/18 02:07:33;;;;;;;0.60;0.60;;;6.20;99.90;;;;;;4959661;28;20506;-84
2022/11/18 02:10:03;;;;;;;0.50;0.50;;;6.20;99.90;;;;;;4939113;28;20051;-82
2022/11/18 02:12:29;;;;;;;0.50;0.50;;;6.20;99.90;;;;;;4972282;28;20047;-84
2022/11/18 02:14:55;;;;;;;0.60;0.60;;;6.20;99.90;;;;;;4957409;28;20129;-84
2022/11/18 02:17:26;;;;;;;0.57;0.57;;;6.50;99.90;;;;;;4957924;28;20038;-84
2022/11/18 02:19:58;;;;;;;0.40;0.40;;;6.20;99.90;;;;;;4954261;28;20050;-83
2022/11/18 02:23:11;;;;;;;0.60;0.60;;;6.20;99.90;;;;;;4954152;28;20047;-84
2022/11/18 02:26:10;;;;;;;0.40;0.40;;;6.20;99.90;;;;;;4887522;29;20044;-84
2022/11/18 02:29:20;;;;;;;0.60;0.60;;;6.20;99.90;;;;;;4883121;29;20052;-83
2022/11/18 02:31:58;;;;;;;0.60;0.60;;;6.20;99.90;;;;;;4897387;29;20047;-84
2022/11/18 02:34:37;;;;;;;0.50;0.50;;;6.20;99.90;;;;;;4951874;28;20055;-84
2022/11/18 02:37:10;;;;;;;0.60;0.60;;;6.20;99.90;;;;;;4957265;28;20058;-82
2022/11/18 02:39:42;;;;;;;0.57;0.57;;;6.20;99.90;;;;;;4953763;28;20081;-84
2022/11/18 02:42:11;;;;;;;0.60;0.60;;;6.10;99.90;;;;;;4953101;28;21296;-83
2022/11/18 02:44:40;;;;;;;1.95;0.80;;;6.20;99.90;;;;;;4956663;28;20066;-83
2022/11/18 02:47:08;;;;;;;0.43;0.43;;;6.20;99.90;;;;;;4986417;28;20793;-85
2022/11/18 02:49:38;;;;;;;0.47;0.47;;;6.10;99.90;;;;;;4974946;28;20358;-83
2022/11/18 02:52:06;;;;;;;0.50;0.50;;;6.10;99.90;;;;;;4973942;28;20042;-84
2022/11/18 02:54:34;;;;;;;0.50;0.50;;;6.10;99.90;;;;;;4974746;28;20053;-84
2022/11/18 02:57:01;;;;;;;0.40;0.40;;;6.10;99.90;;;;;;4980082;28;20193;-83
2022/11/18 02:59:27;;;;;;;0.50;0.50;;;6.10;99.90;;;;;;4974047;28;20082;-83
2022/11/18 03:01:53;;;;;;;0.80;0.80;;;6.10;99.90;;;;;;4976106;28;20038;-84
2022/11/18 03:04:21;;;;;;;0.50;0.50;;;6.10;99.90;;;;;;4974009;28;20038;-83
2022/11/18 03:06:59;;;;;;;0.60;0.60;;;6.10;99.90;;;;;;4975431;28;20044;-83
2022/11/18 03:09:33;;;;;;;0.60;0.60;;;6.10;99.90;;;;;;4957210;28;20054;-82
2022/11/18 03:12:19;;;;;;;0.60;0.60;;;6.10;99.90;;;;;;4977249;28;20042;-83
2022/11/18 03:14:53;;;;;;;0.45;0.45;;;6.00;99.90;;;;;;4977951;28;20054;-82
2022/11/18 03:17:31;;;;;;;0.50;0.50;;;6.00;99.90;;;;;;4976369;28;20049;-83
2022/11/18 03:20:18;;;;;;;0.32;0.32;;;6.00;99.90;;;;;;4974060;28;20046;-83
2022/11/18 03:23:05;;;;;;;0.50;0.50;;;6.00;99.90;;;;;;4974176;28;20126;-83
2022/11/18 03:25:42;;;;;;;0.98;0.98;;;6.00;99.90;;;;;;4989252;28;20050;-82
2022/11/18 03:28:16;;;;;;;0.57;0.57;;;5.90;99.90;;;;;;4971065;28;20133;-83
2022/11/18 03:31:05;;;;;;;0.80;0.80;;;5.90;99.90;;;;;;4976750;28;20133;-83
2022/11/18 03:33:36;;;;;;;0.50;0.50;;;6.40;99.90;;;;;;4974714;28;20046;-83
2022/11/18 03:36:05;;;;;;;0.50;0.50;;;5.90;99.90;;;;;;4986614;28;20054;-83
2022/11/18 03:38:37;;;;;;;0.75;0.75;;;5.90;99.90;;;;;;4976320;28;20054;-84
2022/11/18 03:41:08;;;;;;;0.60;0.60;;;5.90;99.90;;;;;;4979299;28;20026;-84
2022/11/18 03:43:38;;;;;;;0.50;0.50;;;6.00;99.90;;;;;;5007928;28;20814;-83
2022/11/18 03:46:17;;;;;;;0.45;0.45;;;5.90;99.90;;;;;;4995946;28;20066;-83
2022/11/18 03:48:51;;;;;;;0.60;0.60;;;5.90;99.90;;;;;;4967562;28;20478;-83
2022/11/18 03:51:22;;;;;;;0.60;0.60;;;5.90;99.90;;;;;;4981811;28;20522;-82
2022/11/18 03:54:00;;;;;;;0.50;0.50;;;5.90;99.90;;;;;;4978891;28;20038;-84
2022/11/18 03:56:31;;;;;;;0.55;0.55;;;5.90;99.90;;;;;;4980974;28;20037;-83
2022/11/18 03:59:01;;;;;;;0.60;0.60;;;5.90;99.90;;;;;;4978653;28;20050;-82
2022/11/18 04:01:51;;;;;;;0.60;0.60;;;5.90;99.90;;;;;;4994002;28;20053;-81
2022/11/18 04:04:18;;;;;;;0.52;0.52;;;5.90;99.90;;;;;;4964674;28;20061;-83
2022/11/18 04:07:03;;;;;;;0.60;0.60;;;5.90;99.90;;;;;;4947765;28;20042;-83
2022/11/18 04:09:34;;;;;;;0.50;0.50;;;5.80;99.90;;;;;;4994154;28;20053;-84
2022/11/18 04:12:04;;;;;;;0.50;0.50;;;5.80;99.90;;;;;;4965582;28;20490;-83
2022/11/18 04:14:36;;;;;;;0.40;0.40;;;5.80;99.90;;;;;;4979311;28;20042;-83
2022/11/18 04:17:15;;;;;;;0.50;0.50;;;5.80;99.90;;;;;;4975701;28;20574;-83
2022/11/18 04:19:41;;;;;;;0.50;0.50;;;5.80;99.90;;;;;;4982312;28;20100;-82
2022/11/18 04:22:08;;;;;;;0.47;0.47;;;5.80;99.90;;;;;;4961974;28;20037;-84
2022/11/18 04:24:34;;;;;;;0.60;0.60;;;5.80;99.90;;;;;;4965751;28;20212;-83
2022/11/18 04:27:01;;;;;;;0.57;0.57;;;5.80;99.90;;;;;;4999468;28;20069;-84
2022/11/18 04:29:27;;;;;;;0.50;0.50;;;5.80;99.90;;;;;;4979980;28;20571;-83
2022/11/18 04:31:53;;;;;;;0.52;0.52;;;5.80;99.90;;;;;;4976349;28;20055;-83
2022/11/18 04:34:19;;;;;;;0.50;0.50;;;5.80;99.90;;;;;;4959518;28;20045;-83
2022/11/18 04:36:44;;;;;;;0.60;0.60;;;5.80;99.90;;;;;;4981228;28;20049;-84
2022/11/18 04:39:10;;;;;;;0.95;0.90;;;5.80;99.90;;;;;;4994222;28;20507;-84
2022/11/18 04:41:54;;;;;;;0.57;0.57;;;5.80;99.90;;;;;;4980898;28;20041;-83
2022/11/18 04:44:25;;;;;;;0.80;0.80;;;5.80;99.90;;;;;;4977943;28;20103;-83
2022/11/18 04:46:51;;;;;;;0.60;0.60;;;5.80;99.90;;;;;;4992839;28;20050;-83
2022/11/18 04:49:17;;;;;;;0.50;0.50;;;5.70;99.90;;;;;;4979429;28;20064;-83
2022/11/18 04:51:43;;;;;;;;;;;5.70;99.90;;;;;;4982915;28;20049;-83
2022/11/18 04:54:10;;;;;;;0.50;0.50;;;5.90;99.90;;;;;;4977712;28;19964;-83
2022/11/18 04:56:36;;;;;;;0.57;0.57;;;5.70;99.90;;;;;;4961739;28;20092;-83
2022/11/18 04:59:02;;;;;;;0.52;0.52;;;5.70;99.90;;;;;;4991163;28;20558;-82
2022/11/18 05:01:30;;;;;;;0.40;0.40;;;5.70;99.90;;;;;;4979307;28;20701;-83
2022/11/18 05:03:56;;;;;;;0.60;0.60;;;5.70;99.90;;;;;;4990203;28;20042;-82
2022/11/18 05:06:22;;;;;;;0.70;0.70;;;5.70;99.90;;;;;;4978872;28;20154;-82
2022/11/18 05:08:48;;;;;;;0.50;0.50;;;5.70;99.90;;;;;;4985218;28;20403;-83
2022/11/18 05:13:58;;;;;;;0.45;0.45;;;5.70;99.90;;;;;;4982627;28;20053;-82
2022/11/18 05:16:23;;;;;;;0.60;0.60;;;5.70;99.90;;;;;;4985815;28;20073;-83
2022/11/18 05:18:49;;;;;;;0.80;0.75;;;5.70;99.90;;;;;;4984001;28;20056;-83
2022/11/18 05:21:15;;;;;;;0.52;0.52;;;5.80;99.90;;;;;;4985161;28;20050;-84
2022/11/18 05:23:41;;;;;;;0.60;0.60;;;5.60;99.90;;;;;;4996547;28;20053;-84
2022/11/18 05:26:08;;;;;;;0.50;0.50;;;5.60;99.90;;;;;;4985841;28;20034;-83
2022/11/18 05:28:34;;;;;;;0.57;0.57;;;5.70;99.90;;;;;;4977842;28;20447;-84
2022/11/18 05:31:14;;;;;;;0.60;0.60;;;5.60;99.90;;;;;;4980890;28;20042;-82
2022/11/18 05:33:41;;;;;;;0.50;0.50;;;5.60;99.90;;;;;;4982254;28;20045;-83
2022/11/18 05:36:12;;;;;;;0.70;0.70;;;5.60;99.90;;;;;;4994489;28;20057;-83
2022/11/18 05:38:40;;;;;;;0.57;0.57;;;5.70;99.90;;;;;;4964304;28;20049;-85
2022/11/18 05:41:07;;;;;;;0.40;0.40;;;5.60;99.90;;;;;;4983841;28;20111;-84
2022/11/18 05:43:34;;;;;;;0.50;0.50;;;5.30;99.90;;;;;;4980263;28;20648;-83
2022/11/18 05:46:00;;;;;;;0.50;0.50;;;5.60;99.90;;;;;;4963755;28;20041;-83
2022/11/18 05:48:26;;;;;;;0.63;0.63;;;5.60;99.90;;;;;;4992781;28;20061;-84
2022/11/18 05:50:52;;;;;;;;;;;5.60;99.90;;;;;;4947804;28;20058;-84
2022/11/18 05:53:20;;;;;;;0.60;0.60;;;5.60;99.90;;;;;;4980562;28;20674;-84
2022/11/18 05:56:09;;;;;;;0.50;0.50;;;6.30;99.90;;;;;;4982234;28;20053;-85
2022/11/18 05:58:35;;;;;;;0.50;0.50;;;5.60;99.90;;;;;;4999343;28;21504;-85
2022/11/18 06:01:04;;;;;;;0.73;0.73;;;5.60;99.90;;;;;;4952464;28;20034;-82
2022/11/18 06:03:32;;;;;;;0.65;0.65;;;5.30;99.90;;;;;;4984140;28;20508;-81
2022/11/18 06:06:02;;;;;;;0.60;0.60;;;5.60;99.90;;;;;;4979229;28;20132;-81
2022/11/18 06:08:38;;;;;;;0.50;0.50;;;5.60;99.90;;;;;;4984050;28;20100;-83
2022/11/18 06:11:09;;;;;;;0.55;0.55;;;5.50;99.90;;;;;;4973340;28;20133;-85
2022/11/18 06:13:42;;;;;;;0.60;0.60;;;5.70;99.90;;;;;;4994342;28;20049;-84
2022/11/18 06:16:08;;;;;;;0.63;0.63;;;5.50;99.90;;;;;;4996473;28;20042;-83
2022/11/18 06:18:34;;;;;;;0.70;0.70;;;6.20;99.90;;;;;;4984734;28;20155;-81
2022/11/18 06:21:03;;;;;;;0.50;0.50;;;5.50;99.90;;;;;;4980799;28;20385;-84
2022/11/18 06:23:38;;;;;;;0.90;0.90;;;5.50;99.90;;;;;;4964323;28;20045;-85
2022/11/18 06:26:04;;;;;;;0.52;0.52;;;5.60;99.90;;;;;;4980928;28;20034;-83
2022/11/18 06:28:30;;;;;;;0.55;0.55;;;5.50;99.90;;;;;;4985512;28;20050;-86
2022/11/18 06:30:56;;;;;;;0.60;0.60;;;5.60;99.90;;;;;;4963639;28;20045;-83
2022/11/18 06:33:21;;;;;;;0.50;0.50;;;5.60;99.90;;;;;;4964902;28;20511;-83
2022/11/18 06:35:47;;;;;;;0.57;0.57;;;5.50;99.90;;;;;;4963569;28;20442;-84
2022/11/18 06:38:13;;;;;;;0.70;0.70;;;5.50;99.90;;;;;;4979894;28;20045;-84
2022/11/18 06:40:43;;;;;;;0.50;0.50;;;5.50;99.90;;;;;;4996875;28;20511;-82
2022/11/18 06:48:47;;;;;;;0.65;0.65;;;5.70;99.90;;;;;;4999600;28;20060;-81
2022/11/18 06:51:13;;;;;;;0.52;0.52;;;5.50;99.90;;;;;;4970205;28;20049;-83
2022/11/18 06:53:40;;;;;;;0.60;0.60;;;5.50;99.90;;;;;;4985257;28;20054;-83
2022/11/18 06:56:08;;;;;;;0.60;0.60;;;5.50;99.90;;;;;;4983338;28;20045;-83
2022/11/18 06:58:34;;;;;;;0.50;0.50;;;5.50;99.90;;;;;;4981065;28;20045;-81
2022/11/18 07:01:18;;;;;;;0.50;0.50;;;6.60;99.90;;;;;;5004241;28;20103;-80
2022/11/18 07:03:45;;;;;;;0.60;0.60;;;5.50;99.90;;;;;;4986092;28;20472;-81
2022/11/18 07:06:15;;;;;;;0.55;0.55;;;5.60;99.90;;;;;;4955289;28;20645;-82
2022/11/18 07:08:41;;;;;;;0.60;0.60;;;5.90;99.90;;;;;;4984304;28;20072;-83
2022/11/18 07:11:10;;;;;;;0.55;0.55;;;5.50;99.90;;;;;;4978578;28;20053;-83
2022/11/18 07:13:36;;;;;;;0.60;0.60;;;5.50;99.90;;;;;;4993038;28;20737;-82
2022/11/18 07:16:06;;;;;;;;;;;6.10;99.90;;;;;;4996149;28;20041;-81
2022/11/18 07:18:33;;;;;;;0.50;0.50;;;5.60;99.90;;;;;;4965861;28;19929;-82
2022/11/18 07:21:07;;;;;;;0.50;0.50;;;5.50;99.90;;;;;;4964151;28;20061;-83
2022/11/18 07:23:33;;;;;;;0.63;0.60;;;5.50;99.90;;;;;;4981814;28;21162;-84
2022/11/18 07:26:00;;;;;;;0.68;0.68;;;5.50;99.90;;;;;;4983479;28;20145;-82
2022/11/18 07:28:26;;;;;;;0.70;0.70;;;5.40;99.90;;;;;;4981096;28;20046;-82
2022/11/18 07:30:52;;;;;;;0.50;0.50;;;5.40;99.90;;;;;;4945078;28;20111;-82
2022/11/18 07:33:18;;;;;;;0.50;0.50;;;5.40;99.90;;;;;;4981256;28;20045;-83
2022/11/18 07:35:44;;;;;;;0.50;0.50;;;5.40;99.90;;;;;;4974349;28;20128;-83
2022/11/18 07:38:11;;;;;;;0.65;0.65;;;5.40;99.90;;;;;;4955912;28;20164;-81
2022/11/18 07:40:36;;;;;;;0.55;0.55;;;5.40;99.90;;;;;;4939396;28;20120;-82
2022/11/18 07:43:03;;;;;;;0.60;0.60;;;5.40;99.90;;;;;;4972307;28;20395;-83
2022/11/18 07:45:29;;;;;;;0.63;0.63;;;5.40;99.90;;;;;;4959120;28;20141;-82
2022/11/18 07:47:55;;;;;;;0.50;0.50;;;5.40;99.90;;;;;;4979446;28;20042;-82
2022/11/18 07:50:20;;;;;;;0.55;0.55;;;6.10;99.90;;;;;;4961186;28;20046;-83
2022/11/18 07:52:46;;;;;;;0.70;0.70;;;5.40;99.90;;;;;;4959621;28;20136;-83
2022/11/18 07:55:12;;;;;;;0.50;0.50;;;5.40;99.90;;;;;;4976754;28;20781;-83
2022/11/18 07:57:37;;;;;;;0.70;0.70;;;5.40;99.90;;;;;;4963466;28;20063;-82
2022/11/18 08:00:04;;;;;;;0.60;0.60;;;5.40;99.90;;;;;;4979200;28;20050;-82
2022/11/18 08:02:29;;;;;;;0.47;0.47;;;6.00;99.90;;;;;;4959681;28;20050;-83
2022/11/18 08:04:56;;;;;;;0.98;0.98;;;6.00;99.90;;;;;;4962205;28;20041;-83
2022/11/18 08:07:22;;;;;;;0.50;0.50;;;5.40;99.90;;;;;;4991860;28;20045;-83
2022/11/18 08:09:48;;;;;;;0.50;0.50;;;5.40;99.90;;;;;;4957083;28;20049;-84
2022/11/18 08:12:13;;;;;;;0.60;0.60;;;5.40;99.90;;;;;;4982796;28;21500;-82
2022/11/18 08:14:39;;;;;;;0.50;0.50;;;5.40;99.90;;;;;;4978323;28;20112;-82
2022/11/18 08:17:05;;;;;;;0.65;0.65;;;5.40;99.90;;;;;;4973177;28;20670;-84
2022/11/18 08:19:33;;;;;;;0.60;0.60;;;5.40;99.90;;;;;;4992767;28;21379;-83
2022/11/18 08:21:59;;;;;;;0.50;0.50;;;5.40;99.90;;;;;;4976398;28;20136;-83
2022/11/18 08:24:25;;;;;;;0.63;0.63;;;5.40;99.90;;;;;;4966663;28;20050;-81
2022/11/18 08:26:51;;;;;;;0.47;0.47;;;5.40;99.90;;;;;;4971140;28;20053;-83
2022/11/18 08:29:16;;;;;;;0.40;0.40;;;5.40;99.90;;;;;;4955263;28;20563;-83
2022/11/18 08:31:42;;;;;;;0.70;0.70;;;5.40;99.90;;;;;;4987916;28;20046;-82
2022/11/18 08:34:08;;;;;;;0.60;0.60;;;5.40;99.90;;;;;;5009819;28;20037;-81
2022/11/18 08:36:36;;;;;;;0.60;0.60;;;5.40;99.90;;;;;;5003960;28;20049;-82
2022/11/18 08:39:05;;;;;;;0.50;0.50;;;5.50;99.90;;;;;;4991034;28;20054;-82
2022/11/18 08:41:37;;;;;;;0.98;0.98;;;5.40;99.90;;;;;;4978993;28;20080;-82
2022/11/18 08:44:04;;;;;;;0.57;0.57;;;5.40;99.90;;;;;;4979381;28;20041;-82
2022/11/18 08:46:30;;;;;;;0.57;0.57;;;5.50;99.90;;;;;;4963251;28;20045;-83
2022/11/18 08:48:57;;;;;;;0.50;0.50;;;5.50;99.90;;;;;;4977909;28;20050;-83
2022/11/18 08:51:24;;;;;;;0.60;0.60;;;5.40;99.90;;;;;;4996540;28;20359;-82
2022/11/18 08:53:50;;;;;;;0.60;0.60;;;5.50;99.90;;;;;;4948491;28;20053;-83
2022/11/18 08:56:18;;;;;;;0.68;0.68;;;5.50;99.90;;;;;;4981943;28;20037;-83
2022/11/18 08:58:45;;;;;;;0.50;0.50;;;5.50;99.90;;;;;;4975726;28;20100;-83
2022/11/18 09:01:12;;;;;;;2.13;1.95;;;5.50;99.90;;;;;;4996461;28;20387;-81
2022/11/18 09:03:37;;;;;;;0.50;0.50;;;5.50;99.90;;;;;;4964788;28;20046;-80
2022/11/18 09:06:18;;;;;;;0.60;0.60;;;5.50;99.90;;;;;;5003068;28;20040;-84
2022/11/18 09:08:45;;;;;;;1.08;0.90;;;5.50;99.90;;;;;;4984223;28;20049;-83
2022/11/18 09:11:17;;;;;;;0.70;0.70;;;5.50;99.90;;;;;;4965287;28;20080;-83
2022/11/18 09:13:44;;;;;;;0.57;0.57;;;5.50;99.90;;;;;;4977476;28;20046;-83
2022/11/18 09:16:11;;;;;;;0.50;0.50;;;5.50;99.90;;;;;;4975956;28;20136;-83
2022/11/18 09:18:37;;;;;;;0.60;0.60;;;5.50;99.90;;;;;;4948149;28;20067;-84
2022/11/18 09:21:08;;;;;;;0.65;0.65;;;5.50;99.90;;;;;;4961786;28;20476;-85
2022/11/18 09:23:35;;;;;;;4.50;0.90;;;6.20;99.90;;;;;;4989154;28;20106;-84
2022/11/18 09:26:07;;;;;;;0.50;0.50;;;5.40;99.90;;;;;;4955163;28;20038;-86
2022/11/18 09:28:33;;;;;;;0.52;0.52;;;5.30;99.90;;;;;;4989123;28;20045;-89
2022/11/18 09:31:09;;;;;;;0.40;0.40;;;5.30;99.90;;;;;;4972473;28;20055;-88
2022/11/18 09:33:36;;;;;;;0.60;0.60;;;5.30;99.90;;;;;;4989270;28;20380;-87
2022/11/18 09:36:11;;;;;;;0.50;0.50;;;5.30;99.90;;;;;;4993463;28;20042;-88
2022/11/18 09:38:37;;;;;;;0.70;0.70;;;5.30;99.90;;;;;;4976546;28;20045;-88
2022/11/18 09:41:08;;;;;;;0.55;0.55;;;4.90;99.90;;;;;;5012260;28;20056;-87
2022/11/18 09:43:34;;;;;;;0.50;0.50;;;5.30;99.90;;;;;;4982236;28;20577;-86
2022/11/18 09:46:05;;;;;;;0.57;0.57;;;5.30;99.90;;;;;;4983058;28;20050;-88
2022/11/18 09:51:24;;;;;;;0.65;0.65;;;5.30;99.90;;;;;;4988614;28;20221;-88
2022/11/18 09:53:49;;;;;;;0.50;0.50;;;5.40;99.90;;;;;;4974882;28;20046;-86
2022/11/18 09:56:16;;;;;;;0.50;0.50;;;5.40;99.90;;;;;;4983884;28;20435;-87
2022/11/18 09:58:43;;;;;;;0.50;0.50;;;5.40;99.90;;;;;;5009946;28;20072;-87
2022/11/18 10:01:16;;;;;;;0.50;0.50;;;5.40;99.90;;;;;;4991505;28;20050;-86
2022/11/18 10:03:42;;;;;;;1.45;0.95;;;5.50;99.90;;;;;;5007257;28;20081;-87
2022/11/18 10:06:08;;;;;;;2.35;2.25;;;5.40;99.90;;;;;;4973169;28;20061;-87
2022/11/18 10:08:37;;;;;;;;;;;5.80;99.90;;;;;;4996162;28;20082;-87
2022/11/18 10:11:09;;;;;;;0.50;0.50;;;5.40;99.90;;;;;;4977863;28;19925;-87
2022/11/18 10:14:00;;;;;;;0.60;0.60;;;5.40;99.90;;;;;;4991542;28;20056;-85
2022/11/18 10:16:31;;;;;;;0.60;0.60;;;6.50;99.90;;;;;;4985185;28;20428;-86
2022/11/18 10:19:12;;;;;;;0.68;0.68;;;5.40;99.90;;;;;;4995270;28;20045;-87
2022/11/18 10:21:59;;;;;;;0.60;0.60;;;5.40;99.90;;;;;;4998483;28;20041;-86
2022/11/18 10:24:32;;;;;;;0.52;0.52;;;5.40;99.90;;;;;;5003794;28;20049;-87
2022/11/18 10:26:59;;;;;;;0.50;0.50;;;5.30;99.90;;;;;;4984584;28;20041;-87
2022/11/18 10:29:25;;;;;;;0.50;0.50;;;5.30;99.90;;;;;;4999201;28;20396;-87
2022/11/18 10:32:01;;;;;;;0.50;0.50;;;5.20;99.90;;;;;;4990423;28;20046;-87
2022/11/18 10:34:27;;;;;;;0.60;0.60;;;5.60;99.90;;;;;;4995712;28;20061;-85
2022/11/18 10:37:20;;;;;;;1.23;1.23;;;4.80;99.90;;;;;;4970683;28;20045;-83
2022/11/18 10:39:58;;;;;;;0.60;0.60;;;5.10;99.90;;;;;;4964940;28;20084;-83
2022/11/18 10:42:23;;;;;;;0.60;0.60;;;5.10;99.90;;;;;;4992672;28;20038;-83
2022/11/18 10:44:49;;;;;;;0.60;0.60;;;5.10;99.90;;;;;;4974498;28;20103;-83
2022/11/18 10:47:27;;;;;;;1.25;1.25;;;5.40;99.90;;;;;;4961994;28;20034;-83
2022/11/18 10:49:55;;;;;;;0.60;0.60;;;5.00;99.90;;;;;;4979074;28;20054;-83
2022/11/18 10:52:22;;;;;;;0.70;0.70;;;5.00;99.90;;;;;;4987534;28;20058;-83
2022/11/18 10:55:18;;;;;;;0.90;0.90;;;5.00;99.90;;;;;;4998580;28;20058;-83
2022/11/18 10:57:45;;;;;;;0.70;0.70;;;5.00;99.90;;;;;;4975854;28;20046;-83
2022/11/18 11:00:34;;;;;;;0.80;0.80;;;4.90;99.90;;;;;;4985096;28;20128;-83
2022/11/18 11:03:14;;;;;;;0.52;0.52;;;4.90;99.90;;;;;;4981887;28;20104;-83
2022/11/18 11:05:39;;;;;;;0.47;0.47;;;4.80;99.90;;;;;;4966267;28;21639;-83
2022/11/18 11:08:17;;;;;;;0.50;0.50;;;4.80;99.90;;;;;;4976536;28;20045;-83
2022/11/18 11:10:54;;;;;;;3.03;1.65;;;4.70;99.90;;;;;;4987885;28;20052;-82
2022/11/18 11:13:22;;;;;;;0.77;0.77;;;5.20;99.90;;;;;;4989997;28;20042;-82
2022/11/18 11:15:52;;;;;;;0.50;0.50;;;4.70;99.90;;;;;;4968683;28;20140;-84
2022/11/18 11:18:40;;;;;;;0.57;0.57;;;4.60;99.90;;;;;;4976641;28;20096;-83
2022/11/18 11:21:18;;;;;;;0.60;0.60;;;4.70;99.90;;;;;;4979736;28;20601;-83
2022/11/18 11:23:45;;;;;;;0.55;0.55;;;4.60;99.90;;;;;;4976593;28;20097;-82
2022/11/18 11:26:49;;;;;;;1.20;1.10;;;4.60;99.90;;;;;;4978593;28;20085;-83
2022/11/18 11:29:36;;;;;;;0.60;0.60;;;4.60;99.90;;;;;;4978340;28;20041;-83
2022/11/18 11:32:31;;;;;;;0.60;0.60;;;4.50;99.90;;;;;;4982342;28;20442;-82
2022/11/18 11:34:59;;;;;;;0.47;0.47;;;4.50;99.90;;;;;;4977694;28;20433;-83
2022/11/18 11:37:40;;;;;;;0.60;0.60;;;4.40;99.90;;;;;;5011398;28;20045;-84
2022/11/18 11:40:09;;;;;;;0.52;0.52;;;4.50;99.90;;;;;;4991960;28;20467;-82
2022/11/18 11:43:07;;;;;;;0.60;0.60;;;4.40;99.90;;;;;;4994570;28;20145;-83
2022/11/18 11:46:15;;;;;;;1.10;0.90;;;4.40;99.90;;;;;;4997392;28;20064;-84
2022/11/18 11:49:15;;;;;;;0.55;0.55;;;4.40;99.90;;;;;;4965257;28;20052;-84
2022/11/18 11:51:54;;;;;;;0.73;0.73;;;4.40;99.90;;;;;;4979199;28;21447;-82
2022/11/18 11:54:23;;;;;;;1.30;1.13;;;4.30;99.90;;;;;;4974631;28;20054;-84
2022/11/18 11:57:06;;;;;;;0.55;0.55;;;4.30;99.90;;;;;;4981774;28;20052;-83
2022/11/18 11:59:51;;;;;;;0.65;0.65;;;4.30;99.90;;;;;;4975545;28;20058;-83
2022/11/18 12:02:31;;;;;;;0.60;0.60;;;4.30;99.90;;;;;;4976508;28;20377;-87
2022/11/18 12:05:10;;;;;;;0.60;0.60;;;4.30;99.90;;;;;;4988341;28;20038;-83
2022/11/18 12:07:45;;;;;;;4.50;1.77;;;4.30;99.90;;;;;;4976634;28;20522;-83
2022/11/18 12:10:42;;;;;;;0.65;0.65;;;4.30;99.90;;;;;;4972539;28;20060;-82
2022/11/18 12:13:43;;;;;;;0.70;0.70;;;4.30;99.90;;;;;;4976201;28;20108;-84
2022/11/18 12:16:28;;;;;;;0.70;0.70;;;4.30;99.90;;;;;;4995121;28;20077;-84
2022/11/18 12:18:54;;;;;;;0.50;0.50;;;4.40;99.90;;;;;;4980219;28;20050;-85
2022/11/18 12:21:46;;;;;;;2.25;2.15;;;4.40;99.90;;;;;;4991291;28;20225;-83
2022/11/18 12:24:41;;;;;;;0.57;0.57;;;4.40;99.90;;;;;;4983698;28;20038;-84
2022/11/18 12:27:13;;;;;;;0.60;0.60;;;4.40;99.90;;;;;;4980380;28;20415;-83
2022/11/18 12:29:51;;;;;;;0.70;0.70;;;4.40;99.90;;;;;;5005358;28;20041;-83
2022/11/18 12:32:17;;;;;;;0.60;0.60;;;4.30;99.90;;;;;;5000333;28;20048;-83
2022/11/18 12:34:43;;;;;;;0.65;0.65;;;5.30;99.90;;;;;;4987345;28;20410;-82
2022/11/18 12:37:24;;;;;;;0.63;0.63;;;4.70;99.90;;;;;;4987380;28;20048;-84
2022/11/18 12:39:57;;;;;;;0.60;0.60;;;4.30;99.90;;;;;;5021673;28;20127;-84
2022/11/18 12:45:48;;;;;;;0.63;0.63;;;4.30;99.90;;;;;;5011637;28;20373;-84
2022/11/18 12:48:40;;;;;;;0.75;0.75;;;4.30;99.90;;;;;;5014625;28;20424;-83
2022/11/18 12:51:15;;;;;;;0.85;0.85;;;4.30;99.90;;;;;;5007023;28;20049;-83
2022/11/18 12:53:42;;;;;;;0.50;0.50;;;4.30;99.90;;;;;;5002446;28;20060;-83
2022/11/18 12:56:21;;;;;;;0.90;0.90;;;4.30;99.90;;;;;;5003507;28;21770;-83
2022/11/18 12:58:51;;;;;;;0.80;0.80;;;4.30;99.90;;;;;;4987079;28;20045;-83
2022/11/18 13:01:20;;;;;;;1.45;0.90;;;4.20;99.90;;;;;;5006805;28;20654;-83
2022/11/18 13:03:46;;;;;;;0.60;0.60;;;4.30;99.90;;;;;;4990996;28;20038;-82
2022/11/18 13:06:22;;;;;;;0.50;0.50;;;4.20;99.90;;;;;;5027830;28;20117;-82
2022/11/18 13:09:03;;;;;;;0.70;0.70;;;4.20;99.90;;;;;;5027617;28;20071;-84
2022/11/18 13:11:44;;;;;;;1.02;1.02;;;4.20;99.90;;;;;;5010977;28;20041;-83
2022/11/18 13:17:51;;;;;;;0.60;0.60;;;4.10;99.90;;;;;;5010377;28;20038;-84
2022/11/18 13:20:34;;;;;;;0.60;0.60;;;4.00;99.90;;;;;;5011241;28;20045;-84
2022/11/18 13:26:01;;;;;;;0.70;0.70;;;3.90;99.90;;;;;;5030407;28;20046;-82
2022/11/18 13:28:54;;;;;;;0.60;0.60;;;3.90;99.90;;;;;;5046186;28;20065;-82
2022/11/18 13:31:28;;;;;;;0.60;0.60;;;3.80;99.90;;;;;;5027796;28;20048;-83
2022/11/18 13:33:54;;;;;;;0.90;0.90;;;3.80;99.90;;;;;;5014131;28;20067;-83
2022/11/18 13:36:24;;;;;;;0.60;0.60;;;3.70;99.90;;;;;;5001482;28;20046;-84
2022/11/18 13:38:58;;;;;;;1.33;1.27;;;3.70;99.90;;;;;;4988300;28;20140;-83
2022/11/18 13:41:31;;;;;;;0.60;0.60;;;3.70;99.90;;;;;;5019486;28;20391;-83
2022/11/18 13:44:21;;;;;;;0.60;0.60;;;3.60;99.90;;;;;;5015164;28;20038;-83